createdAt,value
2018-12-15T00:01:02.250Z,0.77
2018-12-15T00:03:34.420Z,0.73
2018-12-15T00:06:06.489Z,0.72
2018-12-15T00:08:36.590Z,0.75
2018-12-15T00:11:06.620Z,0.75
2018-12-15T00:13:38.480Z,0.79
2018-12-15T00:16:08.710Z,0.79
2018-12-15T00:18:38.962Z,0.75
2018-12-15T00:21:09.219Z,0.75
2018-12-15T00:23:39.279Z,0.73
2018-12-15T00:26:09.392Z,0.71
2018-12-15T00:28:39.418Z,0.76
2018-12-15T00:31:09.632Z,0.73
2018-12-15T00:33:40.785Z,0.75
2018-12-15T00:36:10.820Z,0.72
2018-12-15T00:38:40.935Z,0.69
2018-12-15T00:41:10.967Z,0.63
2018-12-15T00:43:41.078Z,0.62
2018-12-15T00:46:11.038Z,0.79
2018-12-15T00:48:41.022Z,0.71
2018-12-15T00:51:11.124Z,0.71
2018-12-15T00:53:41.144Z,0.65
2018-12-15T00:56:11.085Z,0.75
2018-12-15T00:58:42.242Z,0.66
2018-12-15T01:01:12.254Z,0.74
2018-12-15T01:03:42.422Z,0.69
2018-12-15T01:06:12.462Z,0.76
2018-12-15T01:08:42.452Z,0.74
2018-12-15T01:11:12.632Z,0.76
2018-12-15T01:13:42.658Z,0.77
2018-12-15T01:16:12.805Z,0.73
2018-12-15T01:18:42.940Z,0.70
2018-12-15T01:21:13.005Z,0.68
2018-12-15T01:23:42.988Z,0.76
2018-12-15T01:26:13.340Z,0.77
2018-12-15T01:28:43.380Z,0.70
2018-12-15T01:31:14.856Z,0.70
2018-12-15T01:33:44.934Z,0.65
2018-12-15T01:36:15.047Z,0.74
2018-12-15T01:38:45.256Z,0.72
2018-12-15T01:41:15.357Z,0.75
2018-12-15T01:43:45.472Z,0.73
2018-12-15T01:46:15.676Z,0.75
2018-12-15T01:48:47.275Z,0.75
2018-12-15T01:51:17.422Z,0.78
2018-12-15T01:53:47.539Z,0.78
2018-12-15T01:56:19.025Z,0.73
2018-12-15T01:58:49.180Z,0.71
2018-12-15T02:01:19.264Z,0.69
2018-12-15T02:03:51.225Z,0.72
2018-12-15T02:06:23.288Z,0.71
2018-12-15T02:08:55.083Z,0.68
2018-12-15T02:11:27.358Z,0.66
2018-12-15T02:13:57.514Z,0.65
2018-12-15T02:16:27.515Z,0.61
2018-12-15T02:18:57.644Z,0.58
2018-12-15T02:21:27.741Z,0.57
2018-12-15T02:23:57.728Z,0.61
2018-12-15T02:26:27.780Z,0.60
2018-12-15T02:28:57.846Z,0.54
2018-12-15T02:31:27.925Z,0.58
2018-12-15T02:33:57.960Z,0.57
2018-12-15T02:36:29.666Z,0.65
2018-12-15T02:38:59.767Z,0.61
2018-12-15T02:41:31.695Z,0.61
2018-12-15T02:44:01.863Z,0.56
2018-12-15T02:46:31.956Z,0.62
2018-12-15T02:49:01.994Z,0.56
2018-12-15T02:51:32.051Z,0.59
2018-12-15T02:54:02.256Z,0.57
2018-12-15T02:56:32.446Z,0.62
2018-12-15T02:59:02.454Z,0.64
2018-12-15T03:01:32.585Z,0.61
2018-12-15T03:04:02.648Z,0.62
2018-12-15T03:06:32.816Z,0.62
2018-12-15T03:09:02.827Z,0.60
2018-12-15T03:11:34.934Z,0.63
2018-12-15T03:14:05.025Z,0.61
2018-12-15T03:16:34.905Z,0.67
2018-12-15T03:19:12.340Z,0.68
2018-12-15T03:21:42.262Z,0.70
2018-12-15T03:24:12.283Z,0.63
2018-12-15T03:26:42.278Z,0.68
2018-12-15T03:29:12.156Z,0.60
2018-12-15T03:31:42.078Z,0.64
2018-12-15T03:34:12.068Z,0.59
2018-12-15T03:36:41.927Z,0.69
2018-12-15T03:39:11.984Z,0.75
2018-12-15T03:41:42.109Z,0.72
2018-12-15T03:44:12.225Z,0.73
2018-12-15T03:46:42.230Z,0.71
2018-12-15T03:49:12.273Z,0.67
2018-12-15T03:51:42.248Z,0.61
2018-12-15T03:54:12.334Z,0.65
2018-12-15T03:56:42.330Z,0.67
2018-12-15T03:59:12.413Z,0.70
2018-12-15T04:01:42.446Z,0.63
2018-12-15T04:04:12.400Z,0.60
2018-12-15T04:06:42.549Z,0.69
2018-12-15T04:09:12.561Z,0.62
2018-12-15T04:11:42.480Z,0.71
2018-12-15T04:14:14.277Z,0.65
2018-12-15T04:16:46.100Z,0.72
2018-12-15T04:19:16.217Z,0.74
2018-12-15T04:21:46.359Z,0.74
2018-12-15T04:24:16.744Z,0.75
2018-12-15T04:26:46.755Z,0.71
2018-12-15T04:29:24.936Z,0.66
2018-12-15T04:32:01.907Z,0.74
2018-12-15T04:34:38.231Z,0.69
2018-12-15T04:37:14.024Z,0.68
2018-12-15T04:39:47.931Z,0.65
2018-12-15T04:42:23.415Z,0.63
2018-12-15T04:44:59.607Z,0.78
2018-12-15T04:47:35.760Z,0.76
2018-12-15T04:50:09.439Z,0.64
2018-12-15T04:52:47.064Z,0.67
2018-12-15T04:55:23.231Z,0.72
2018-12-15T05:00:59.691Z,0.71
2018-12-15T05:06:38.424Z,0.67
2018-12-15T05:12:21.075Z,0.72
2018-12-15T05:14:58.047Z,0.75
2018-12-15T05:17:31.851Z,0.71
2018-12-15T05:20:07.564Z,0.72
2018-12-15T05:22:43.322Z,0.67
2018-12-15T05:25:19.416Z,0.72
2018-12-15T05:27:55.375Z,0.70
2018-12-15T05:30:29.302Z,0.64
2018-12-15T05:33:04.859Z,0.63
2018-12-15T05:35:42.941Z,0.63
2018-12-15T05:38:19.165Z,0.61
2018-12-15T05:40:55.108Z,0.74
2018-12-15T05:43:31.084Z,0.71
2018-12-15T05:46:05.002Z,0.69
2018-12-15T05:51:46.493Z,0.69
2018-12-15T05:54:20.187Z,0.75
2018-12-15T05:56:55.392Z,0.72
2018-12-15T05:59:30.739Z,0.71
2018-12-15T06:02:09.546Z,0.70
2018-12-15T06:04:44.910Z,0.64
2018-12-15T06:07:27.938Z,0.71
2018-12-15T06:10:03.828Z,0.74
2018-12-15T06:12:39.763Z,0.72
2018-12-15T06:15:17.730Z,0.63
2018-12-15T06:17:59.881Z,0.62
2018-12-15T06:20:39.550Z,0.65
2018-12-15T06:23:19.342Z,0.70
2018-12-15T06:25:55.520Z,0.71
2018-12-15T06:28:31.854Z,0.69
2018-12-15T06:31:17.614Z,0.68
2018-12-15T06:33:54.309Z,0.65
2018-12-15T06:36:30.580Z,0.71
2018-12-15T06:39:07.068Z,0.76
2018-12-15T06:41:42.972Z,0.68
2018-12-15T06:44:19.173Z,0.69
2018-12-15T06:46:55.784Z,0.69
2018-12-15T06:49:39.511Z,0.69
2018-12-15T06:52:15.324Z,0.70
2018-12-15T06:54:51.437Z,0.69
2018-12-15T06:57:25.643Z,0.59
2018-12-15T07:00:03.071Z,0.71
2018-12-15T07:02:47.034Z,0.71
2018-12-15T07:05:23.879Z,0.70
2018-12-15T07:07:55.776Z,0.69
2018-12-15T07:10:33.122Z,0.72
2018-12-15T07:13:09.282Z,0.68
2018-12-15T07:15:45.447Z,0.69
2018-12-15T07:18:21.586Z,0.70
2018-12-15T07:20:55.478Z,0.82
2018-12-15T07:23:32.021Z,0.81
2018-12-15T07:26:05.798Z,0.84
2018-12-15T07:28:41.236Z,0.78
2018-12-15T07:31:17.131Z,0.80
2018-12-15T07:33:50.978Z,0.74
2018-12-15T07:36:26.447Z,0.78
2018-12-15T07:39:03.219Z,0.76
2018-12-15T07:41:40.897Z,0.78
2018-12-15T07:44:16.774Z,0.76
2018-12-15T07:46:53.315Z,0.84
2018-12-15T07:49:28.969Z,0.80
2018-12-15T07:52:07.065Z,0.78
2018-12-15T07:54:41.251Z,0.84
2018-12-15T07:57:15.714Z,0.81
2018-12-15T07:59:49.264Z,0.78
2018-12-15T08:02:24.893Z,0.84
2018-12-15T08:04:56.729Z,0.91
2018-12-15T08:07:28.504Z,0.88
2018-12-15T08:10:00.769Z,0.85
2018-12-15T08:12:42.337Z,0.84
2018-12-15T08:15:12.667Z,0.92
2018-12-15T08:17:42.928Z,0.89
2018-12-15T08:20:13.168Z,0.93
2018-12-15T08:22:43.387Z,0.90
2018-12-15T08:25:15.193Z,0.90
2018-12-15T08:27:47.418Z,0.93
2018-12-15T08:30:17.679Z,0.97
2018-12-15T08:32:49.599Z,0.95
2018-12-15T08:35:21.562Z,0.99
2018-12-15T08:37:53.421Z,1.00
2018-12-15T08:40:25.314Z,1.02
2018-12-15T08:42:57.318Z,1.00
2018-12-15T08:45:30.209Z,1.04
2018-12-15T08:48:02.080Z,1.06
2018-12-15T08:50:34.122Z,1.10
2018-12-15T08:53:05.939Z,1.09
2018-12-15T08:55:37.854Z,1.11
2018-12-15T08:58:09.622Z,1.10
2018-12-15T09:00:41.573Z,1.13
2018-12-15T09:03:13.484Z,1.14
2018-12-15T09:05:49.087Z,1.12
2018-12-15T09:08:19.319Z,1.08
2018-12-15T09:10:49.397Z,1.08
2018-12-15T09:13:19.440Z,1.22
2018-12-15T09:15:49.502Z,1.22
2018-12-15T09:18:19.459Z,1.25
2018-12-15T09:20:49.635Z,1.21
2018-12-15T09:23:19.702Z,1.22
2018-12-15T09:25:49.731Z,1.32
2018-12-15T09:28:19.792Z,1.36
2018-12-15T09:30:51.579Z,1.38
2018-12-15T09:33:21.618Z,1.41
2018-12-15T09:35:51.767Z,1.41
2018-12-15T09:38:22.092Z,1.38
2018-12-15T09:40:52.153Z,1.42
2018-12-15T09:43:22.304Z,1.43
2018-12-15T09:45:52.274Z,1.43
2018-12-15T09:48:22.349Z,1.45
2018-12-15T09:50:52.520Z,1.48
2018-12-15T09:53:22.679Z,1.58
2018-12-15T09:55:53.007Z,1.53
2018-12-15T09:58:23.004Z,1.46
2018-12-15T10:00:53.230Z,1.49
2018-12-15T10:03:23.113Z,1.49
2018-12-15T10:05:53.401Z,1.46
2018-12-15T10:08:23.753Z,1.47
2018-12-15T10:10:53.745Z,1.48
2018-12-15T10:13:23.745Z,1.51
2018-12-15T10:15:55.023Z,1.46
2018-12-15T10:18:25.161Z,1.49
2018-12-15T10:20:55.328Z,1.52
2018-12-15T10:23:25.277Z,1.52
2018-12-15T10:25:55.333Z,1.51
2018-12-15T10:28:25.646Z,1.63
2018-12-15T10:31:00.974Z,1.59
2018-12-15T10:33:31.094Z,1.68
2018-12-15T10:36:01.126Z,1.62
2018-12-15T10:38:31.175Z,1.65
2018-12-15T10:41:01.344Z,1.63
2018-12-15T10:43:31.679Z,1.63
2018-12-15T10:46:01.996Z,1.70
2018-12-15T10:48:34.233Z,1.65
2018-12-15T10:51:04.426Z,1.70
2018-12-15T10:53:34.608Z,1.70
2018-12-15T10:56:04.729Z,1.69
2018-12-15T10:58:34.752Z,1.78
2018-12-15T11:01:10.192Z,1.75
2018-12-15T11:03:42.085Z,1.75
2018-12-15T11:06:12.275Z,1.79
2018-12-15T11:08:42.297Z,1.81
2018-12-15T11:11:12.544Z,1.85
2018-12-15T11:13:42.589Z,1.91
2018-12-15T11:16:13.593Z,1.85
2018-12-15T11:18:43.847Z,1.94
2018-12-15T11:21:14.008Z,1.93
2018-12-15T11:23:44.026Z,1.90
2018-12-15T11:26:14.194Z,1.93
2018-12-15T11:28:44.340Z,1.93
2018-12-15T11:31:15.403Z,1.83
2018-12-15T11:33:45.418Z,1.81
2018-12-15T11:36:15.641Z,1.77
2018-12-15T11:38:45.658Z,1.87
2018-12-15T11:41:15.717Z,1.81
2018-12-15T11:43:46.170Z,1.86
2018-12-15T11:46:17.339Z,1.93
2018-12-15T11:48:48.357Z,1.88
2018-12-15T11:51:18.358Z,1.87
2018-12-15T11:53:48.397Z,1.88
2018-12-15T11:56:19.379Z,1.84
2018-12-15T11:58:49.384Z,1.83
2018-12-15T12:01:19.298Z,1.78
2018-12-15T12:03:49.293Z,1.71
2018-12-15T12:06:19.426Z,1.73
2018-12-15T12:08:49.441Z,1.72
2018-12-15T12:11:19.405Z,1.75
2018-12-15T12:13:49.369Z,1.70
2018-12-15T12:16:19.357Z,1.69
2018-12-15T12:18:49.656Z,1.66
2018-12-15T12:21:21.850Z,1.64
2018-12-15T12:23:54.544Z,1.63
2018-12-15T12:26:26.603Z,1.53
2018-12-15T12:28:56.537Z,1.53
2018-12-15T12:31:26.641Z,1.39
2018-12-15T12:33:56.749Z,1.42
2018-12-15T12:36:26.731Z,1.43
2018-12-15T12:38:56.838Z,1.40
2018-12-15T12:41:26.990Z,1.43
2018-12-15T12:43:57.352Z,1.44
2018-12-15T12:46:27.308Z,1.41
2018-12-15T12:49:04.924Z,1.41
2018-12-15T12:51:40.966Z,1.46
2018-12-15T12:54:10.909Z,1.44
2018-12-15T12:56:41.151Z,1.38
2018-12-15T12:59:11.241Z,1.34
2018-12-15T13:01:41.342Z,1.28
2018-12-15T13:04:11.297Z,1.35
2018-12-15T13:06:41.386Z,1.37
2018-12-15T13:09:12.542Z,1.30
2018-12-15T13:11:42.485Z,1.31
2018-12-15T13:14:12.644Z,1.33
2018-12-15T13:16:43.623Z,1.35
2018-12-15T13:19:13.780Z,1.31
2018-12-15T13:21:43.644Z,1.23
2018-12-15T13:24:13.789Z,1.26
2018-12-15T13:26:43.835Z,1.27
2018-12-15T13:29:13.910Z,1.25
2018-12-15T13:31:43.822Z,1.26
2018-12-15T13:34:13.807Z,1.15
2018-12-15T13:36:44.091Z,1.23
2018-12-15T13:39:13.944Z,1.25
2018-12-15T13:41:44.019Z,1.28
2018-12-15T13:44:13.877Z,1.20
2018-12-15T13:46:43.939Z,1.21
2018-12-15T13:49:13.994Z,1.14
2018-12-15T13:51:43.972Z,1.13
2018-12-15T13:54:13.865Z,1.10
2018-12-15T13:56:43.814Z,1.14
2018-12-15T13:59:13.887Z,1.13
2018-12-15T14:01:43.746Z,1.20
2018-12-15T14:04:13.701Z,1.15
2018-12-15T14:06:47.066Z,1.13
2018-12-15T14:09:21.155Z,1.15
2018-12-15T14:12:03.674Z,1.14
2018-12-15T14:14:44.424Z,1.14
2018-12-15T14:17:19.665Z,1.07
2018-12-15T14:19:53.459Z,1.11
2018-12-15T14:22:29.762Z,1.05
2018-12-15T14:25:01.462Z,0.97
2018-12-15T14:27:31.441Z,0.99
2018-12-15T14:30:07.575Z,1.05
2018-12-15T14:32:43.207Z,0.99
2018-12-15T14:35:19.299Z,0.92
2018-12-15T14:37:58.935Z,0.97
2018-12-15T14:43:40.017Z,0.92
2018-12-15T14:46:14.758Z,0.95
2018-12-15T14:48:51.044Z,0.97
2018-12-15T14:51:26.982Z,1.03
2018-12-15T14:54:01.089Z,0.99
2018-12-15T14:56:35.068Z,1.03
2018-12-15T14:59:21.646Z,1.00
2018-12-15T15:01:59.348Z,0.94
2018-12-15T15:04:35.586Z,0.96
2018-12-15T15:07:09.429Z,0.88
2018-12-15T15:09:45.705Z,0.88
2018-12-15T15:12:22.925Z,0.84
2018-12-15T15:14:59.186Z,0.85
2018-12-15T15:17:32.805Z,0.82
2018-12-15T15:20:09.349Z,0.76
2018-12-15T15:22:45.427Z,0.79
2018-12-15T15:25:21.412Z,0.78
2018-12-15T15:28:01.585Z,0.81
2018-12-15T15:30:35.674Z,0.82
2018-12-15T15:33:11.594Z,0.75
2018-12-15T15:35:47.433Z,0.73
2018-12-15T15:38:24.814Z,0.74
2018-12-15T15:41:00.581Z,0.73
2018-12-15T15:43:36.641Z,0.68
2018-12-15T15:46:10.437Z,0.62
2018-12-15T15:48:47.426Z,0.65
2018-12-15T15:51:25.195Z,0.63
2018-12-15T15:54:01.094Z,0.65
2018-12-15T15:56:36.849Z,0.65
2018-12-15T15:59:19.843Z,0.65
2018-12-15T16:01:57.705Z,0.63
2018-12-15T16:04:33.706Z,0.60
2018-12-15T16:07:09.921Z,0.64
2018-12-15T16:09:45.573Z,0.60
2018-12-15T16:12:21.861Z,0.62
2018-12-15T16:14:58.565Z,0.61
2018-12-15T16:17:34.814Z,0.63
2018-12-15T16:20:12.952Z,0.61
2018-12-15T16:22:48.884Z,0.63
2018-12-15T16:25:22.885Z,0.58
2018-12-15T16:27:56.807Z,0.57
2018-12-15T16:30:32.869Z,0.58
2018-12-15T16:33:09.731Z,0.57
2018-12-15T16:35:45.773Z,0.60
2018-12-15T16:38:22.056Z,0.55
2018-12-15T16:40:57.784Z,0.55
2018-12-15T16:43:31.846Z,0.54
2018-12-15T16:46:05.078Z,0.43
2018-12-15T16:48:42.326Z,0.44
2018-12-15T16:51:18.383Z,0.39
2018-12-15T16:53:52.152Z,0.43
2018-12-15T16:56:27.801Z,0.42
2018-12-15T16:58:57.795Z,0.44
2018-12-15T17:01:38.117Z,0.44
2018-12-15T17:04:13.791Z,0.45
2018-12-15T17:06:49.964Z,0.45
2018-12-15T17:09:30.114Z,0.48
2018-12-15T17:15:09.651Z,0.49
2018-12-15T17:17:45.508Z,0.39
2018-12-15T17:20:15.795Z,0.37
2018-12-15T17:22:47.069Z,0.42
2018-12-15T17:25:17.059Z,0.40
2018-12-15T17:27:47.381Z,0.40
2018-12-15T17:30:17.346Z,0.39
2018-12-15T17:32:47.350Z,0.40
2018-12-15T17:35:23.360Z,0.37
2018-12-15T17:38:01.453Z,0.37
2018-12-15T17:40:33.171Z,0.41
2018-12-15T17:43:11.450Z,0.47
2018-12-15T17:45:43.308Z,0.38
2018-12-15T17:48:13.359Z,0.44
2018-12-15T17:50:48.498Z,0.45
2018-12-15T17:53:40.321Z,0.40
2018-12-15T17:56:10.519Z,0.43
2018-12-15T17:58:49.321Z,0.51
2018-12-15T18:01:25.432Z,0.40
2018-12-15T18:03:59.483Z,0.44
2018-12-15T18:06:34.438Z,0.46
2018-12-15T18:09:21.925Z,0.44
2018-12-15T18:11:55.045Z,0.45
2018-12-15T18:14:30.506Z,0.45
2018-12-15T18:17:06.253Z,0.42
2018-12-15T18:22:38.767Z,0.49
2018-12-15T18:25:21.572Z,0.49
2018-12-15T18:27:57.276Z,0.45
2018-12-15T18:30:39.377Z,0.39
2018-12-15T18:33:37.015Z,0.41
2018-12-15T18:36:23.822Z,0.33
2018-12-15T18:39:11.684Z,0.42
2018-12-15T18:41:59.886Z,0.39
2018-12-15T18:44:36.397Z,0.36
2018-12-15T18:47:12.013Z,0.40
2018-12-15T18:49:46.076Z,0.38
2018-12-15T18:52:28.097Z,0.39
2018-12-15T18:55:05.030Z,0.41
2018-12-15T18:57:43.772Z,0.40
2018-12-15T19:00:26.385Z,0.37
2018-12-15T19:03:04.077Z,0.37
2018-12-15T19:05:40.347Z,0.38
2018-12-15T19:08:20.918Z,0.36
2018-12-15T19:10:56.662Z,0.34
2018-12-15T19:13:31.027Z,0.28
2018-12-15T19:16:08.354Z,0.20
2018-12-15T19:21:45.454Z,0.19
2018-12-15T19:24:28.043Z,0.24
2018-12-15T19:27:10.561Z,0.22
2018-12-15T19:32:52.757Z,0.18
2018-12-15T19:35:29.969Z,0.10
2018-12-15T19:38:16.484Z,0.19
2018-12-15T19:40:58.383Z,0.18
2018-12-15T19:43:38.938Z,0.23
2018-12-15T19:46:13.726Z,0.21
2018-12-15T19:48:51.192Z,0.16
2018-12-15T19:51:40.276Z,0.23
2018-12-15T19:54:22.859Z,0.23
2018-12-15T19:57:00.086Z,0.18
2018-12-15T19:59:38.300Z,0.25
2018-12-15T20:02:18.919Z,0.28
2018-12-15T20:14:00.947Z,0.29
2018-12-15T20:19:38.438Z,0.20
2018-12-15T20:22:16.058Z,0.25
2018-12-15T20:24:53.579Z,0.18
2018-12-15T20:27:29.305Z,0.24
2018-12-15T20:30:05.824Z,0.23
2018-12-15T20:32:42.550Z,0.20
2018-12-15T20:35:14.145Z,0.19
2018-12-15T20:37:48.194Z,0.10
2018-12-15T20:42:58.795Z,0.18
2018-12-15T20:45:31.394Z,0.13
2018-12-15T20:48:03.701Z,0.16
2018-12-15T20:50:33.833Z,0.21
2018-12-15T20:53:04.021Z,0.22
2018-12-15T20:55:34.786Z,0.16
2018-12-15T20:58:04.831Z,0.25
2018-12-15T21:00:34.870Z,0.26
2018-12-15T21:03:05.107Z,0.21
2018-12-15T21:05:38.336Z,0.25
2018-12-15T21:08:08.461Z,0.29
2018-12-15T21:10:38.573Z,0.25
2018-12-15T21:13:08.595Z,0.27
2018-12-15T21:15:42.833Z,0.29
2018-12-15T21:18:13.311Z,0.26
2018-12-15T21:20:43.356Z,0.28
2018-12-15T21:23:13.418Z,0.30
2018-12-15T21:25:43.755Z,0.24
2018-12-15T21:28:13.838Z,0.19
2018-12-15T21:30:43.894Z,0.19
2018-12-15T21:33:13.897Z,0.23
2018-12-15T21:35:45.045Z,0.24
2018-12-15T21:38:15.151Z,0.21
2018-12-15T21:40:45.150Z,0.24
2018-12-15T21:43:15.394Z,0.24
2018-12-15T21:45:45.574Z,0.23
2018-12-15T21:48:16.346Z,0.22
2018-12-15T21:50:46.442Z,0.14
2018-12-15T21:53:16.800Z,0.14
2018-12-15T21:55:46.795Z,0.10
2018-12-15T21:58:16.877Z,0.12
2018-12-15T22:00:55.976Z,0.11
2018-12-15T22:03:31.941Z,0.16
2018-12-15T22:06:19.836Z,0.18
2018-12-15T22:09:03.810Z,0.24
2018-12-15T22:14:39.208Z,0.28
2018-12-15T22:17:16.310Z,0.31
2018-12-15T22:19:49.903Z,0.27
2018-12-15T22:22:32.285Z,0.21
2018-12-15T22:25:08.512Z,0.20
2018-12-15T22:27:38.491Z,0.16
2018-12-15T22:30:14.825Z,0.20
2018-12-15T22:35:57.953Z,0.28
2018-12-15T22:38:35.679Z,0.31
2018-12-15T22:41:11.898Z,0.33
2018-12-15T22:44:02.080Z,0.30
2018-12-15T22:46:39.345Z,0.31
2018-12-15T22:49:11.114Z,0.29
2018-12-15T22:51:48.226Z,0.24
2018-12-15T22:54:26.132Z,-0.56
2018-12-15T22:57:20.016Z,0.25
2018-12-15T22:59:51.732Z,0.22
2018-12-15T23:02:29.017Z,0.18
2018-12-15T23:05:07.823Z,0.26
2018-12-15T23:07:45.449Z,0.21
2018-12-15T23:10:27.303Z,0.19
2018-12-15T23:16:05.731Z,0.08
2018-12-15T23:18:47.158Z,0.08
2018-12-15T23:21:30.273Z,0.02
2018-12-15T23:24:05.425Z,-0.16
2018-12-15T23:26:40.968Z,-0.14
2018-12-15T23:29:25.152Z,-0.24
2018-12-15T23:38:04.602Z,-0.43
2018-12-15T23:40:40.652Z,-0.46
2018-12-15T23:43:16.717Z,-0.46
2018-12-15T23:45:52.529Z,-0.47
2018-12-15T23:48:28.559Z,-0.55
2018-12-15T23:51:04.462Z,-0.62
2018-12-15T23:53:38.259Z,-0.62
2018-12-15T23:56:13.815Z,-0.65
